createdAt,value
2022-10-25T00:01:03.582Z,14.65
2022-10-25T00:03:34.610Z,14.63
2022-10-25T00:06:04.893Z,14.61
2022-10-25T00:08:33.444Z,14.60
2022-10-25T00:11:02.059Z,14.61
2022-10-25T00:13:30.663Z,14.58
2022-10-25T00:15:59.389Z,14.57
2022-10-25T00:18:28.051Z,14.56
2022-10-25T00:20:58.094Z,14.51
2022-10-25T00:23:26.724Z,14.49
2022-10-25T00:26:02.962Z,14.45
2022-10-25T00:28:31.541Z,14.40
2022-10-25T00:31:03.283Z,14.38
2022-10-25T00:33:32.471Z,14.38
2022-10-25T00:36:07.564Z,14.39
2022-10-25T00:38:36.870Z,14.35
2022-10-25T00:41:07.221Z,14.37
2022-10-25T00:43:38.083Z,14.27
2022-10-25T00:46:12.796Z,14.21
2022-10-25T00:48:44.100Z,14.18
2022-10-25T00:51:14.192Z,14.17
2022-10-25T00:53:44.169Z,14.13
2022-10-25T00:56:18.810Z,14.10
2022-10-25T00:58:51.109Z,14.04
2022-10-25T01:01:20.509Z,13.93
2022-10-25T01:03:51.664Z,13.87
2022-10-25T01:06:29.751Z,13.88
2022-10-25T01:08:59.244Z,13.89
2022-10-25T01:11:27.812Z,13.86
2022-10-25T01:13:58.814Z,13.79
2022-10-25T01:16:34.283Z,13.82
2022-10-25T01:19:18.419Z,13.87
2022-10-25T01:21:51.483Z,13.88
2022-10-25T01:24:54.761Z,13.90
2022-10-25T01:27:50.548Z,13.91
2022-10-25T01:30:22.872Z,13.92
2022-10-25T01:33:06.444Z,13.96
2022-10-25T01:35:44.321Z,13.97
2022-10-25T01:38:28.904Z,14.00
2022-10-25T01:41:08.793Z,13.99
2022-10-25T01:43:48.701Z,14.00
2022-10-25T01:46:23.973Z,14.01
2022-10-25T01:49:00.951Z,14.06
2022-10-25T01:51:30.080Z,14.08
2022-10-25T01:53:58.842Z,14.09
2022-10-25T01:56:31.501Z,14.09
2022-10-25T01:59:26.665Z,14.10
2022-10-25T02:02:07.204Z,14.11
2022-10-25T02:04:51.814Z,14.12
2022-10-25T02:07:28.250Z,14.09
2022-10-25T02:12:49.197Z,14.05
2022-10-25T02:15:26.093Z,14.03
2022-10-25T02:18:01.020Z,14.03
2022-10-25T02:20:36.193Z,14.05
2022-10-25T02:23:07.393Z,14.01
2022-10-25T02:25:39.144Z,14.03
2022-10-25T02:28:14.413Z,14.02
2022-10-25T02:30:45.640Z,13.99
2022-10-25T02:33:15.761Z,13.96
2022-10-25T02:35:45.760Z,13.92
2022-10-25T02:38:14.561Z,13.92
2022-10-25T02:40:43.170Z,13.89
2022-10-25T02:43:13.269Z,13.85
2022-10-25T02:45:41.898Z,13.85
2022-10-25T02:48:10.429Z,13.83
2022-10-25T02:50:39.017Z,13.72
2022-10-25T02:53:09.034Z,13.76
2022-10-25T02:55:38.984Z,13.69
2022-10-25T02:58:07.570Z,13.62
2022-10-25T03:00:36.231Z,13.60
2022-10-25T03:03:05.223Z,13.54
2022-10-25T03:06:24.257Z,13.50
2022-10-25T03:09:19.980Z,13.51
2022-10-25T03:11:53.804Z,13.42
2022-10-25T03:14:22.373Z,13.32
2022-10-25T03:17:16.433Z,13.28
2022-10-25T03:20:11.305Z,13.26
2022-10-25T03:22:42.734Z,13.24
2022-10-25T03:25:13.181Z,13.23
2022-10-25T03:27:42.980Z,13.29
2022-10-25T03:30:13.922Z,13.25
2022-10-25T03:33:07.645Z,13.21
2022-10-25T03:35:37.534Z,13.16
2022-10-25T03:38:06.198Z,13.12
2022-10-25T03:40:36.266Z,13.08
2022-10-25T03:43:30.276Z,13.08
2022-10-25T03:46:00.330Z,13.08
2022-10-25T03:48:29.025Z,13.09
2022-10-25T03:50:58.505Z,13.11
2022-10-25T03:53:33.687Z,13.12
2022-10-25T03:56:04.519Z,13.11
2022-10-25T03:58:58.585Z,13.05
2022-10-25T04:01:27.309Z,13.06
2022-10-25T04:04:02.024Z,13.09
2022-10-25T04:06:31.517Z,13.08
2022-10-25T04:09:04.337Z,13.10
2022-10-25T04:11:59.523Z,13.16
2022-10-25T04:14:53.788Z,13.12
2022-10-25T04:17:25.053Z,13.10
2022-10-25T04:19:53.627Z,13.11
2022-10-25T04:22:47.564Z,13.02
2022-10-25T04:25:16.266Z,12.98
2022-10-25T04:27:46.710Z,12.93
2022-10-25T04:30:17.637Z,12.90
2022-10-25T04:32:46.535Z,12.85
2022-10-25T04:35:15.608Z,12.78
2022-10-25T04:37:47.540Z,12.75
2022-10-25T04:40:17.483Z,12.73
2022-10-25T04:42:51.377Z,12.71
2022-10-25T04:45:21.611Z,12.71
2022-10-25T04:47:50.345Z,12.72
2022-10-25T04:50:45.303Z,12.74
2022-10-25T04:53:39.598Z,12.74
2022-10-25T04:56:15.279Z,12.74
2022-10-25T04:58:45.240Z,12.75
2022-10-25T05:01:18.706Z,12.79
2022-10-25T05:04:12.426Z,12.82
2022-10-25T05:06:46.129Z,12.80
2022-10-25T05:09:14.807Z,12.81
2022-10-25T05:12:33.329Z,12.83
2022-10-25T05:15:24.347Z,12.83
2022-10-25T05:17:58.558Z,12.77
2022-10-25T05:20:55.597Z,12.72
2022-10-25T05:23:26.268Z,12.67
2022-10-25T05:26:03.020Z,12.58
2022-10-25T05:28:33.417Z,12.56
2022-10-25T05:34:11.097Z,12.58
2022-10-25T05:37:04.657Z,12.58
2022-10-25T05:39:33.817Z,12.59
2022-10-25T05:42:06.739Z,12.64
2022-10-25T05:44:37.027Z,12.71
2022-10-25T05:47:07.549Z,12.74
2022-10-25T05:50:02.659Z,12.77
2022-10-25T05:52:32.906Z,12.79
2022-10-25T05:55:01.628Z,12.82
2022-10-25T05:57:57.128Z,12.80
2022-10-25T06:00:26.007Z,12.81
2022-10-25T06:02:56.047Z,12.83
2022-10-25T06:05:49.476Z,12.82
2022-10-25T06:08:43.717Z,12.83
2022-10-25T06:11:39.088Z,12.78
2022-10-25T06:14:12.468Z,12.74
2022-10-25T06:17:08.403Z,12.75
2022-10-25T06:20:04.117Z,12.71
2022-10-25T06:22:57.906Z,12.76
2022-10-25T06:25:26.627Z,12.73
2022-10-25T06:27:55.851Z,12.74
2022-10-25T06:30:24.450Z,12.77
2022-10-25T06:32:57.672Z,12.77
2022-10-25T06:35:30.137Z,12.84
2022-10-25T06:38:23.739Z,12.87
2022-10-25T06:41:20.292Z,12.90
2022-10-25T06:44:14.366Z,13.04
2022-10-25T06:47:17.525Z,13.10
2022-10-25T06:50:11.342Z,13.12
2022-10-25T06:52:42.625Z,13.13
2022-10-25T06:55:36.755Z,13.18
2022-10-25T06:58:05.289Z,13.18
2022-10-25T07:00:58.299Z,13.20
2022-10-25T07:03:35.382Z,13.21
2022-10-25T07:06:35.908Z,13.22
2022-10-25T07:09:31.809Z,13.20
2022-10-25T07:12:25.597Z,13.18
2022-10-25T07:14:58.313Z,13.09
2022-10-25T07:17:27.172Z,13.16
2022-10-25T07:20:00.459Z,13.17
2022-10-25T07:22:28.940Z,13.21
2022-10-25T07:25:24.009Z,13.20
2022-10-25T07:28:01.518Z,13.20
2022-10-25T07:30:55.567Z,13.18
2022-10-25T07:33:27.305Z,13.18
2022-10-25T07:36:16.671Z,13.25
2022-10-25T07:38:46.009Z,13.36
2022-10-25T07:41:21.058Z,13.36
2022-10-25T07:44:17.454Z,13.32
2022-10-25T07:47:12.609Z,13.34
2022-10-25T07:50:07.028Z,13.40
2022-10-25T07:53:00.741Z,13.59
2022-10-25T07:55:35.093Z,13.68
2022-10-25T07:58:07.070Z,13.84
2022-10-25T08:01:04.095Z,14.03
2022-10-25T08:03:33.359Z,14.23
2022-10-25T08:06:03.028Z,14.43
2022-10-25T08:08:31.390Z,14.67
2022-10-25T08:11:00.493Z,14.83
2022-10-25T08:13:30.331Z,14.91
2022-10-25T08:15:58.900Z,15.03
2022-10-25T08:18:27.872Z,15.15
2022-10-25T08:21:02.478Z,15.31
2022-10-25T08:23:32.620Z,15.45
2022-10-25T08:26:01.304Z,15.57
2022-10-25T08:28:31.835Z,15.70
2022-10-25T08:31:01.446Z,15.74
2022-10-25T08:33:30.730Z,15.91
2022-10-25T08:36:02.290Z,15.94
2022-10-25T08:38:31.074Z,16.05
2022-10-25T08:41:07.077Z,16.17
2022-10-25T08:43:55.767Z,16.25
2022-10-25T08:46:29.049Z,16.34
2022-10-25T08:49:10.754Z,16.46
2022-10-25T08:51:42.190Z,16.47
2022-10-25T08:54:22.799Z,16.79
2022-10-25T08:57:10.686Z,16.88
2022-10-25T08:59:51.960Z,16.82
2022-10-25T09:02:35.123Z,16.95
2022-10-25T09:05:03.959Z,16.95
2022-10-25T09:07:52.153Z,16.85
2022-10-25T09:10:37.309Z,16.88
2022-10-25T09:13:43.759Z,17.01
2022-10-25T09:16:50.280Z,17.12
2022-10-25T09:19:33.850Z,17.36
2022-10-25T09:22:30.422Z,17.48
2022-10-25T09:25:14.051Z,17.58
2022-10-25T09:27:53.622Z,17.71
2022-10-25T09:30:22.819Z,17.82
2022-10-25T09:32:56.966Z,17.86
2022-10-25T09:35:29.792Z,17.75
2022-10-25T09:38:03.761Z,17.65
2022-10-25T09:41:01.730Z,17.66
2022-10-25T09:44:01.743Z,17.79
2022-10-25T09:46:38.953Z,17.88
2022-10-25T09:49:38.901Z,17.91
2022-10-25T09:52:21.019Z,18.05
2022-10-25T09:55:32.731Z,18.08
2022-10-25T09:58:30.604Z,18.12
2022-10-25T10:01:06.352Z,18.24
2022-10-25T10:03:38.191Z,18.18
2022-10-25T10:06:17.322Z,18.23
2022-10-25T10:08:52.692Z,18.33
2022-10-25T10:11:24.984Z,18.33
2022-10-25T10:14:28.310Z,18.42
2022-10-25T10:17:24.752Z,18.51
2022-10-25T10:20:17.993Z,18.49
2022-10-25T10:22:53.676Z,18.45
2022-10-25T10:25:26.881Z,18.54
2022-10-25T10:27:59.761Z,18.68
2022-10-25T10:30:31.181Z,18.68
2022-10-25T10:33:03.321Z,18.80
2022-10-25T10:35:34.644Z,18.91
2022-10-25T10:38:16.216Z,19.03
2022-10-25T10:40:47.872Z,19.01
2022-10-25T10:43:31.195Z,19.00
2022-10-25T10:46:05.811Z,19.05
2022-10-25T10:48:41.883Z,19.22
2022-10-25T10:51:32.021Z,19.36
2022-10-25T10:54:23.218Z,19.38
2022-10-25T10:57:00.946Z,19.41
2022-10-25T10:59:39.127Z,19.42
2022-10-25T11:02:23.928Z,19.61
2022-10-25T11:04:54.871Z,19.75
2022-10-25T11:07:30.693Z,19.92
2022-10-25T11:10:21.235Z,20.03
2022-10-25T11:13:07.840Z,20.22
2022-10-25T11:15:50.797Z,20.23
2022-10-25T11:18:28.664Z,20.26
2022-10-25T11:21:06.367Z,20.36
2022-10-25T11:23:46.916Z,20.50
2022-10-25T11:26:25.247Z,20.72
2022-10-25T11:29:04.126Z,20.79
2022-10-25T11:31:47.456Z,20.79
2022-10-25T11:34:25.669Z,20.99
2022-10-25T11:37:07.842Z,21.01
2022-10-25T11:39:53.215Z,21.29
2022-10-25T11:42:58.069Z,21.40
2022-10-25T11:45:52.254Z,21.53
2022-10-25T11:48:54.128Z,21.59
2022-10-25T11:51:32.219Z,21.60
2022-10-25T11:54:13.815Z,21.57
2022-10-25T11:56:55.531Z,21.51
2022-10-25T11:59:35.941Z,21.40
2022-10-25T12:02:22.654Z,21.40
2022-10-25T12:05:15.209Z,21.51
2022-10-25T12:07:51.468Z,21.46
2022-10-25T12:10:28.795Z,21.43
2022-10-25T12:13:02.349Z,21.41
2022-10-25T12:15:39.846Z,21.48
2022-10-25T12:18:15.907Z,21.43
2022-10-25T12:20:47.897Z,21.33
2022-10-25T12:23:20.277Z,21.30
2022-10-25T12:25:52.099Z,21.36
2022-10-25T12:28:29.328Z,21.71
2022-10-25T12:31:03.626Z,21.82
2022-10-25T12:33:38.312Z,21.71
2022-10-25T12:36:13.650Z,21.63
2022-10-25T12:38:42.938Z,21.68
2022-10-25T12:41:19.372Z,21.66
2022-10-25T12:44:04.455Z,21.56
2022-10-25T12:46:55.058Z,21.18
2022-10-25T12:49:58.633Z,20.84
2022-10-25T12:52:34.056Z,20.71
2022-10-25T12:55:31.726Z,20.75
2022-10-25T12:58:14.318Z,20.47
2022-10-25T13:01:01.923Z,20.12
2022-10-25T13:04:12.795Z,19.80
2022-10-25T13:06:45.916Z,19.58
2022-10-25T13:09:17.435Z,19.53
2022-10-25T13:12:01.796Z,19.49
2022-10-25T13:14:33.521Z,19.45
2022-10-25T13:17:23.960Z,19.42
2022-10-25T13:19:54.986Z,19.45
2022-10-25T13:22:37.787Z,19.51
2022-10-25T13:25:19.648Z,19.57
2022-10-25T13:28:10.002Z,19.84
2022-10-25T13:30:38.774Z,20.08
2022-10-25T13:33:33.931Z,20.24
2022-10-25T13:36:05.779Z,20.25
2022-10-25T13:38:39.943Z,20.30
2022-10-25T13:41:15.495Z,20.41
2022-10-25T13:43:59.865Z,20.32
2022-10-25T13:46:34.088Z,20.35
2022-10-25T13:49:06.144Z,20.34
2022-10-25T13:51:34.618Z,20.28
2022-10-25T13:54:11.647Z,20.22
2022-10-25T13:56:52.635Z,20.05
2022-10-25T13:59:56.943Z,19.86
2022-10-25T14:02:25.815Z,19.78
2022-10-25T14:04:54.267Z,19.59
2022-10-25T14:07:44.840Z,19.44
2022-10-25T14:10:30.429Z,19.27
2022-10-25T14:13:16.400Z,19.12
2022-10-25T14:15:55.888Z,18.93
2022-10-25T14:18:25.377Z,18.79
2022-10-25T14:20:57.476Z,18.72
2022-10-25T14:23:33.358Z,18.57
2022-10-25T14:26:06.608Z,18.47
2022-10-25T14:28:36.389Z,18.38
2022-10-25T14:31:07.171Z,18.27
2022-10-25T14:33:40.890Z,18.22
2022-10-25T14:36:13.126Z,18.16
2022-10-25T14:38:52.580Z,18.09
2022-10-25T14:41:25.497Z,17.98
2022-10-25T14:43:54.725Z,17.91
2022-10-25T14:46:24.551Z,17.91
2022-10-25T14:48:58.139Z,17.86
2022-10-25T14:51:29.809Z,17.87
2022-10-25T14:54:02.957Z,17.90
2022-10-25T14:56:37.537Z,17.89
2022-10-25T14:59:17.625Z,17.91
2022-10-25T15:01:54.364Z,17.91
2022-10-25T15:04:34.389Z,17.84
2022-10-25T15:07:04.511Z,17.77
2022-10-25T15:09:49.032Z,17.68
2022-10-25T15:12:21.647Z,17.60
2022-10-25T15:14:50.256Z,17.53
2022-10-25T15:17:28.620Z,17.45
2022-10-25T15:20:03.066Z,17.33
2022-10-25T15:22:34.345Z,17.18
2022-10-25T15:25:02.915Z,17.05
2022-10-25T15:27:41.960Z,16.88
2022-10-25T15:30:36.267Z,16.72
2022-10-25T15:33:09.630Z,16.63
2022-10-25T15:35:47.689Z,16.52
2022-10-25T15:38:17.989Z,16.45
2022-10-25T15:40:47.348Z,16.32
2022-10-25T15:43:17.537Z,16.17
2022-10-25T15:45:47.028Z,16.09
2022-10-25T15:48:17.595Z,15.98
2022-10-25T15:50:50.238Z,15.92
2022-10-25T15:53:18.763Z,15.83
2022-10-25T15:55:47.516Z,15.79
2022-10-25T15:58:17.607Z,15.76
2022-10-25T16:00:48.301Z,15.78
2022-10-25T16:03:22.548Z,15.72
2022-10-25T16:05:52.336Z,15.63
2022-10-25T16:08:20.590Z,15.57
2022-10-25T16:10:49.328Z,15.54
2022-10-25T16:13:27.597Z,15.46
2022-10-25T16:15:56.337Z,15.36
2022-10-25T16:20:58.188Z,15.19
2022-10-25T16:23:28.349Z,15.07
2022-10-25T16:25:57.273Z,14.96
2022-10-25T16:28:27.045Z,14.88
2022-10-25T16:30:55.543Z,14.90
2022-10-25T16:33:23.969Z,14.93
2022-10-25T16:35:52.980Z,14.90
2022-10-25T16:38:21.459Z,14.79
2022-10-25T16:40:50.101Z,14.74
2022-10-25T16:43:19.048Z,14.69
2022-10-25T16:45:49.030Z,14.63
2022-10-25T16:48:17.579Z,14.62
2022-10-25T16:50:46.176Z,14.52
2022-10-25T16:53:16.351Z,14.36
2022-10-25T16:55:45.013Z,14.34
2022-10-25T16:58:13.558Z,14.26
2022-10-25T17:00:42.376Z,14.25
2022-10-25T17:03:12.720Z,14.21
2022-10-25T17:05:41.330Z,14.19
2022-10-25T17:08:09.835Z,14.20
2022-10-25T17:10:42.472Z,14.20
2022-10-25T17:13:16.063Z,14.27
2022-10-25T17:15:44.750Z,14.24
2022-10-25T17:18:19.615Z,14.22
2022-10-25T17:20:49.288Z,14.13
2022-10-25T17:23:17.579Z,14.03
2022-10-25T17:25:46.009Z,13.88
2022-10-25T17:28:14.650Z,13.82
2022-10-25T17:30:43.449Z,13.63
2022-10-25T17:33:12.106Z,13.51
2022-10-25T17:35:43.908Z,13.42
2022-10-25T17:38:12.909Z,13.30
2022-10-25T17:40:42.089Z,13.24
2022-10-25T17:43:11.888Z,13.28
2022-10-25T17:45:40.149Z,13.30
2022-10-25T17:48:08.689Z,13.36
2022-10-25T17:50:41.104Z,13.30
2022-10-25T17:53:11.635Z,13.20
2022-10-25T17:55:41.518Z,13.18
2022-10-25T17:58:10.058Z,13.14
2022-10-25T18:00:38.492Z,13.19
2022-10-25T18:03:07.037Z,13.22
2022-10-25T18:05:36.130Z,13.10
2022-10-25T18:08:04.697Z,13.24
2022-10-25T18:10:36.309Z,13.22
2022-10-25T18:13:04.829Z,13.24
2022-10-25T18:15:35.286Z,13.28
2022-10-25T18:18:03.795Z,13.21
2022-10-25T18:20:32.719Z,13.19
2022-10-25T18:23:01.327Z,13.19
2022-10-25T18:25:29.895Z,13.16
2022-10-25T18:27:59.896Z,13.11
2022-10-25T18:30:28.609Z,13.06
2022-10-25T18:32:57.147Z,12.98
2022-10-25T18:35:25.648Z,12.94
2022-10-25T18:37:54.203Z,12.94
2022-10-25T18:40:22.887Z,12.85
2022-10-25T18:42:51.416Z,12.87
2022-10-25T18:45:21.500Z,12.86
2022-10-25T18:47:53.486Z,12.80
2022-10-25T18:50:22.049Z,12.74
2022-10-25T18:52:50.575Z,12.71
2022-10-25T18:55:21.689Z,12.67
2022-10-25T18:57:50.531Z,12.63
2022-10-25T19:00:23.117Z,12.57
2022-10-25T19:02:54.169Z,12.50
2022-10-25T19:05:23.436Z,12.46
2022-10-25T19:07:52.539Z,12.54
2022-10-25T19:10:21.203Z,12.58
2022-10-25T19:12:49.720Z,12.61
2022-10-25T19:15:18.358Z,12.65
2022-10-25T19:17:52.098Z,12.68
2022-10-25T19:20:20.709Z,12.64
2022-10-25T19:22:49.690Z,12.47
2022-10-25T19:25:21.538Z,12.34
2022-10-25T19:27:52.729Z,12.25
2022-10-25T19:30:21.336Z,12.24
2022-10-25T19:32:51.500Z,12.22
2022-10-25T19:35:20.969Z,12.18
2022-10-25T19:37:50.782Z,12.21
2022-10-25T19:40:19.718Z,12.15
2022-10-25T19:42:48.250Z,12.01
2022-10-25T19:45:16.849Z,11.91
2022-10-25T19:47:46.181Z,11.83
2022-10-25T19:50:16.488Z,11.83
2022-10-25T19:52:46.697Z,11.79
2022-10-25T19:55:15.127Z,11.82
2022-10-25T19:57:43.827Z,11.85
2022-10-25T20:00:13.703Z,11.87
2022-10-25T20:02:42.431Z,11.84
2022-10-25T20:07:46.429Z,11.88
2022-10-25T20:10:15.618Z,11.94
2022-10-25T20:12:44.317Z,11.94
2022-10-25T20:15:17.131Z,11.88
2022-10-25T20:17:45.943Z,11.90
2022-10-25T20:20:14.706Z,11.93
2022-10-25T20:22:43.681Z,11.94
2022-10-25T20:27:42.316Z,11.90
2022-10-25T20:30:11.455Z,11.87
2022-10-25T20:32:40.030Z,11.87
2022-10-25T20:35:09.036Z,11.87
2022-10-25T20:37:37.671Z,11.87
2022-10-25T20:40:08.069Z,11.84
2022-10-25T20:42:38.157Z,11.90
2022-10-25T20:45:07.395Z,11.89
2022-10-25T20:47:35.945Z,11.84
2022-10-25T20:50:04.748Z,11.94
2022-10-25T20:52:34.776Z,11.92
2022-10-25T20:55:04.257Z,11.93
2022-10-25T20:57:33.760Z,11.93
2022-10-25T21:00:03.614Z,11.94
2022-10-25T21:02:32.081Z,11.96
2022-10-25T21:05:00.800Z,11.96
2022-10-25T21:07:31.297Z,11.96
2022-10-25T21:10:00.221Z,11.96
2022-10-25T21:12:28.827Z,11.95
2022-10-25T21:14:57.566Z,11.97
2022-10-25T21:17:27.468Z,11.90
2022-10-25T21:19:56.070Z,11.82
2022-10-25T21:22:24.760Z,11.78
2022-10-25T21:24:53.447Z,11.72
2022-10-25T21:27:21.959Z,11.66
2022-10-25T21:29:51.021Z,11.61
2022-10-25T21:32:19.551Z,11.44
2022-10-25T21:34:49.630Z,11.39
2022-10-25T21:37:18.233Z,11.46
2022-10-25T21:39:48.088Z,11.43
2022-10-25T21:42:16.698Z,11.40
2022-10-25T21:44:45.269Z,11.35
2022-10-25T21:47:13.938Z,11.25
2022-10-25T21:49:42.369Z,11.19
2022-10-25T21:52:12.799Z,11.16
2022-10-25T21:54:41.380Z,11.00
2022-10-25T21:57:10.476Z,10.97
2022-10-25T21:59:39.038Z,10.89
2022-10-25T22:02:07.926Z,10.80
2022-10-25T22:04:36.566Z,10.80
2022-10-25T22:07:05.201Z,10.74
2022-10-25T22:09:35.113Z,10.70
2022-10-25T22:12:03.950Z,10.69
2022-10-25T22:14:32.776Z,10.63
2022-10-25T22:17:01.295Z,10.62
2022-10-25T22:19:29.870Z,10.63
2022-10-25T22:21:58.500Z,10.62
2022-10-25T22:24:27.097Z,10.64
2022-10-25T22:26:57.119Z,10.60
2022-10-25T22:29:25.755Z,10.63
2022-10-25T22:31:54.299Z,10.62
2022-10-25T22:34:22.829Z,10.43
2022-10-25T22:36:51.790Z,10.42
2022-10-25T22:39:20.278Z,10.41
2022-10-25T22:41:53.098Z,10.38
2022-10-25T22:44:23.224Z,10.36
2022-10-25T22:46:51.765Z,10.27
2022-10-25T22:49:21.987Z,10.24
2022-10-25T22:51:50.409Z,10.20
2022-10-25T22:54:18.938Z,10.19
2022-10-25T22:56:47.569Z,10.24
2022-10-25T22:59:16.076Z,10.21
2022-10-25T23:01:45.926Z,10.18
2022-10-25T23:04:14.916Z,10.08
2022-10-25T23:06:43.378Z,10.12
2022-10-25T23:09:12.599Z,10.10
2022-10-25T23:11:42.071Z,10.05
2022-10-25T23:14:14.997Z,9.99
2022-10-25T23:16:48.007Z,9.95
2022-10-25T23:19:16.711Z,9.98
2022-10-25T23:21:45.303Z,9.99
2022-10-25T23:24:13.995Z,10.06
2022-10-25T23:26:42.570Z,10.08
2022-10-25T23:29:13.646Z,10.03
2022-10-25T23:31:42.309Z,9.86
2022-10-25T23:34:12.613Z,9.78
2022-10-25T23:36:41.668Z,9.76
2022-10-25T23:39:10.129Z,9.81
2022-10-25T23:41:39.315Z,9.80
2022-10-25T23:44:07.809Z,9.71
2022-10-25T23:46:36.491Z,9.69
2022-10-25T23:49:05.028Z,9.73
2022-10-25T23:51:35.136Z,9.81
2022-10-25T23:54:04.048Z,9.84
2022-10-25T23:56:32.597Z,9.82
2022-10-25T23:59:01.253Z,9.84
